Saipan, MP

8:16 AM ChST on November 26, 2014 (GMT +1000)
West Tinian | Change Station
CLOSE
Current Station
Airport
Location: Peipeinimaru,
Elevation: 269 ft
Nearby Weather Stations

Elev 269 ft 15.00 °N, 145.62 °E | Updated 19 minutes ago

Mostly Cloudy
Mostly Cloudy
82 °F
Feels Like 91 °F
N
5
Wind Variable Wind from East

Today
High -- | Low -- °F
--% Chance of Precip.
Yesterday
High -- | Low -- °F
Precip. -- in
6:24 AM 5:44 PM
Waxing Crescent, 14% visible
Pressure 29.87 in
Visibility 7.0 miles
Clouds Scattered Clouds 1500 ft
Scattered Clouds 2500 ft
Mostly Cloudy 8000 ft
Heat Index 91 °F
Dew Point 77 °F
Humidity 84%
Rainfall 0.00 in
Snow Depth Not available.
UV 1 out of 12
Pollen Not available.
Air Quality Not available.
Flu Activity Not available.
METAR PGWT 252157Z 09004KT 7SM VCSH SCT015 SCT025 BKN080 28/25 A2987 RMK VCSH NE

More Conditions Fewer Conditions

Pressure 29.87 in
Visibility 7.0 miles
Clouds Scattered Clouds 1500 ft
Scattered Clouds 2500 ft
Mostly Cloudy 8000 ft
Heat Index 91 °F
Dew Point 77 °F
Humidity 84%
Rainfall 0.00 in
Snow Depth Not available.
UV 1 out of 12
Pollen Not available.
Air Quality Not available.
Flu Activity Not available.
METAR PGWT 252157Z 09004KT 7SM VCSH SCT015 SCT025 BKN080 28/25 A2987 RMK VCSH NE

More Conditions Fewer Conditions

10-Day Weather Forecast

Almanac

Astronomy

Nov. 26, 2014 Rise Set
Actual Time
Civil Twilight
Nautical Twilight
Astronomical Twilight
Moon
Length of Visible Light
Length of Day
Tomorrow will be .
, % of the Moon is Illuminated

Today's Extremes

State Highs State Lows

Community

WunderPhotos

Upload Photos

1,773,608 photos uploaded!

WunderBlogs® & News

Nearby

Air Quality

  Air Quality AQ Index Pollutant
Not available.

Snow Depth

Station Depth Elevation

Earthquake Activity

City Distance Mag. Time & Date
Minimum magnitude displayed is 2.5.

Coastal Water Temperatures

Place Temperature

Nearby Weather Stations